Halcyon — C6WB4 — position and weather

sailwx.info

Track history (hours):
 
Tides and Currents Weather Stations Pressure Air Temp Water Temp Dewpoint Dewpoint Depression Visibility Wind Speed Wind Dir Waves Ship Positions

Halcyon

Last reported at 2018-Jun-23 05:57 UTC. Time now 2018-Jun-25 00:11 UTC.
Position N 35°60' E 120°12'.

Length 148 m; draft 7.3 m.

Type: Ship. MMSI: 311033860.

Date/timePositionNaut miles runAvg speedWind from/ knotsBaromVisibWave heightAir tempDewpointWater temp
2018-Jun-23 05:57N 35°60' E 120°12'0 0.0
2018-Jun-23 04:00N 35°60' E 120°12'0 0.0
2018-Jun-23 03:29N 35°60' E 120°12'0 0.0
2018-Jun-23 02:49N 35°60' E 120°12'0 0.0
2018-Jun-23 02:10N 35°60' E 120°12'0 0.0
2018-Jun-23 01:16N 35°60' E 120°12'0 0.0
2018-Jun-23 00:58N 35°60' E 120°12'0 0.0
2018-Jun-23 00:22N 35°60' E 120°12'0 0.0
2018-Jun-22 23:49N 35°60' E 120°12'0 0.0
2018-Jun-22 23:13N 35°60' E 120°12'0 0.0
2018-Jun-22 22:57N 35°60' E 120°12'0 0.0
2018-Jun-22 10:02N 35°60' E 120°12'0 0.0
2018-Jun-22 09:43N 35°60' E 120°12'0 0.0
2018-Jun-22 09:14N 35°60' E 120°12'0 0.0
2018-Jun-22 08:54N 35°60' E 120°12'0 0.2
2018-Jun-22 07:55N 35°60' E 120°12'3 7.7
2018-Jun-22 07:30N 36°02' E 120°15'4 8.5
2018-Jun-22 07:00N 36°02' E 120°20'815.0
2018-Jun-22 06:28N 36°00' E 120°30'  
2018-Jun-19 12:14N 34°25' E 134°11'416.0
2018-Jun-19 12:00N 34°24' E 134°15'815.8
2018-Jun-19 11:30N 34°26' E 134°25'816.2
2018-Jun-19 11:00N 34°29' E 134°34'715.1
2018-Jun-19 10:30N 34°32' E 134°42'714.8
2018-Jun-19 10:00N 34°34' E 134°51'713.4
2018-Jun-19 09:30N 34°37' E 134°58'611.9
2018-Jun-19 09:00N 34°36' E 135°05'714.8
2018-Jun-19 08:30N 34°36' E 135°14'714.7
2018-Jun-19 08:00N 34°38' E 135°23'3 5.3
2018-Jun-19 07:30N 34°39' E 135°26'0 0.0
2018-Jun-19 06:58N 34°39' E 135°26'0 0.0
2018-Jun-19 06:28N 34°39' E 135°26'0 0.0
2018-Jun-19 05:58N 34°39' E 135°26'0 0.0
2018-Jun-19 05:22N 34°39' E 135°26'0 0.0
2018-Jun-19 04:58N 34°39' E 135°26'0 0.0
2018-Jun-19 04:28N 34°39' E 135°26'0 0.0
2018-Jun-19 03:58N 34°39' E 135°26'0 0.0
2018-Jun-19 03:07N 34°39' E 135°26'0 0.1
2018-Jun-19 02:43N 34°39' E 135°26'0 0.2
2018-Jun-19 02:28N 34°39' E 135°26'0 0.0
2018-Jun-19 01:58N 34°39' E 135°26'0 0.0
2018-Jun-19 01:28N 34°39' E 135°26'0 0.0
2018-Jun-19 00:55N 34°39' E 135°26'0 0.0
2018-Jun-19 00:25N 34°39' E 135°26'0 0.0
2018-Jun-19 00:00N 34°39' E 135°26'2 4.1
2018-Jun-18 23:29N 34°38' E 135°23'714.4
2018-Jun-18 23:00N 34°35' E 135°16'816.8
2018-Jun-18 22:30N 34°34' E 135°06'917.3
2018-Jun-18 22:00N 34°36' E 134°55'917.9
2018-Jun-18 21:30N 34°32' E 134°45'917.1
2018-Jun-18 21:01N 34°29' E 134°36'917.4
2018-Jun-18 20:30N 34°25' E 134°26'917.0
2018-Jun-18 19:59N 34°24' E 134°15'68015.0
2018-Jun-16 22:38N 35°58' E 120°32'311.9
2018-Jun-16 22:23N 35°59' E 120°28'13 1.2
2018-Jun-16 11:43N 35°60' E 120°12'4 0.8
2018-Jun-16 06:55N 36°02' E 120°16'4 7.8
2018-Jun-16 06:24N 36°02' E 120°21'611.5
2018-Jun-16 05:55N 36°00' E 120°27'  
Track history (hours):
 
Tides and Currents Weather Stations Pressure Air Temp Water Temp Dewpoint Dewpoint Depression Visibility Wind Speed Wind Dir Waves Ship Positions

Halcyon

Last reported at 2018-Jun-23 05:57 UTC. Time now 2018-Jun-25 00:11 UTC.
Position N 35°60' E 120°12'.

Length 148 m; draft 7.3 m.

Type: Ship. MMSI: 311033860.

Date/timePositionNaut miles runAvg speedWind from/ knotsBaromVisibWave heightAir tempDewpointWater temp
2018-Jun-23 05:57N 35°60' E 120°12'0 0.0
2018-Jun-23 04:00N 35°60' E 120°12'0 0.0
2018-Jun-23 03:29N 35°60' E 120°12'0 0.0
2018-Jun-23 02:49N 35°60' E 120°12'0 0.0
2018-Jun-23 02:10N 35°60' E 120°12'0 0.0
2018-Jun-23 01:16N 35°60' E 120°12'0 0.0
2018-Jun-23 00:58N 35°60' E 120°12'0 0.0
2018-Jun-23 00:22N 35°60' E 120°12'0 0.0
2018-Jun-22 23:49N 35°60' E 120°12'0 0.0
2018-Jun-22 23:13N 35°60' E 120°12'0 0.0
2018-Jun-22 22:57N 35°60' E 120°12'0 0.0
2018-Jun-22 10:02N 35°60' E 120°12'0 0.0
2018-Jun-22 09:43N 35°60' E 120°12'0 0.0
2018-Jun-22 09:14N 35°60' E 120°12'0 0.0
2018-Jun-22 08:54N 35°60' E 120°12'0 0.2
2018-Jun-22 07:55N 35°60' E 120°12'3 7.7
2018-Jun-22 07:30N 36°02' E 120°15'4 8.5
2018-Jun-22 07:00N 36°02' E 120°20'815.0
2018-Jun-22 06:28N 36°00' E 120°30'  
2018-Jun-19 12:14N 34°25' E 134°11'416.0
2018-Jun-19 12:00N 34°24' E 134°15'815.8
2018-Jun-19 11:30N 34°26' E 134°25'816.2
2018-Jun-19 11:00N 34°29' E 134°34'715.1
2018-Jun-19 10:30N 34°32' E 134°42'714.8
2018-Jun-19 10:00N 34°34' E 134°51'713.4
2018-Jun-19 09:30N 34°37' E 134°58'611.9
2018-Jun-19 09:00N 34°36' E 135°05'714.8
2018-Jun-19 08:30N 34°36' E 135°14'714.7
2018-Jun-19 08:00N 34°38' E 135°23'3 5.3
2018-Jun-19 07:30N 34°39' E 135°26'0 0.0
2018-Jun-19 06:58N 34°39' E 135°26'0 0.0
2018-Jun-19 06:28N 34°39' E 135°26'0 0.0
2018-Jun-19 05:58N 34°39' E 135°26'0 0.0
2018-Jun-19 05:22N 34°39' E 135°26'0 0.0
2018-Jun-19 04:58N 34°39' E 135°26'0 0.0
2018-Jun-19 04:28N 34°39' E 135°26'0 0.0
2018-Jun-19 03:58N 34°39' E 135°26'0 0.0
2018-Jun-19 03:07N 34°39' E 135°26'0 0.1
2018-Jun-19 02:43N 34°39' E 135°26'0 0.2
2018-Jun-19 02:28N 34°39' E 135°26'0 0.0
2018-Jun-19 01:58N 34°39' E 135°26'0 0.0
2018-Jun-19 01:28N 34°39' E 135°26'0 0.0
2018-Jun-19 00:55N 34°39' E 135°26'0 0.0
2018-Jun-19 00:25N 34°39' E 135°26'0 0.0
2018-Jun-19 00:00N 34°39' E 135°26'2 4.1
2018-Jun-18 23:29N 34°38' E 135°23'714.4
2018-Jun-18 23:00N 34°35' E 135°16'816.8
2018-Jun-18 22:30N 34°34' E 135°06'917.3
2018-Jun-18 22:00N 34°36' E 134°55'917.9
2018-Jun-18 21:30N 34°32' E 134°45'917.1
2018-Jun-18 21:01N 34°29' E 134°36'917.4
2018-Jun-18 20:30N 34°25' E 134°26'917.0
2018-Jun-18 19:59N 34°24' E 134°15'68015.0
2018-Jun-16 22:38N 35°58' E 120°32'311.9
2018-Jun-16 22:23N 35°59' E 120°28'13 1.2
2018-Jun-16 11:43N 35°60' E 120°12'4 0.8
2018-Jun-16 06:55N 36°02' E 120°16'4 7.8
2018-Jun-16 06:24N 36°02' E 120°21'611.5
2018-Jun-16 05:55N 36°00' E 120°27'  

Dump ship's entire track history